Time;durP1;ratioP1;P1;durP2;ratioP2;P2;SDS_P1;SDS_P2;PMS_P1;PMS_P2;Temp;Humidity;BMP_temperature;BMP_pressure;BME280_temperature;BME280_humidity;BME280_pressure;Samples;Min_cycle;Max_cycle;Signal;HPM_P1;HPM_P2
2020/12/29 00:01:43;;;;;;;1999.90;999.90;;;;;;;-3.01;96.72;101523.41;1853176;76;21111;-68
2020/12/29 00:04:17;;;;;;;1999.90;999.90;;;;;;;-3.00;96.92;101523.72;1850319;76;21129;-67
2020/12/29 00:06:47;;;;;;;1999.90;999.90;;;;;;;-2.99;97.05;101530.81;1847786;76;21073;-74
2020/12/29 00:09:16;;;;;;;1999.90;999.90;;;;;;;-3.00;97.12;101526.44;1848616;76;21083;-69
2020/12/29 00:11:44;;;;;;;1999.90;999.90;;;;;;;-2.98;97.30;101525.72;1850819;76;21523;-76
2020/12/29 00:14:13;;;;;;;1999.90;999.90;;;;;;;-2.98;97.37;101527.08;1857516;76;21145;-76
2020/12/29 00:16:52;;;;;;;1999.90;999.90;;;;;;;-2.95;97.50;101533.97;1711185;82;21201;-73
2020/12/29 00:19:24;;;;;;;1999.90;999.90;;;;;;;-2.95;97.61;101528.55;1711303;82;21652;-73
2020/12/29 00:21:52;;;;;;;1999.90;999.90;;;;;;;-2.96;97.82;101527.72;1707627;82;21140;-75
2020/12/29 00:24:20;;;;;;;1999.90;999.90;;;;;;;-2.95;97.98;101521.78;1711495;82;23634;-75
2020/12/29 00:26:50;;;;;;;1999.90;999.90;;;;;;;-2.95;98.15;101519.07;1730976;81;20996;-68
2020/12/29 00:29:17;;;;;;;1999.90;999.90;;;;;;;-2.96;98.36;101504.69;1735723;81;21634;-75
2020/12/29 00:31:45;;;;;;;1999.90;999.90;;;;;;;-2.95;98.51;101504.17;1727466;81;21166;-77
2020/12/29 00:34:13;;;;;;;1999.90;999.90;;;;;;;-2.94;98.66;101503.14;1732916;81;21171;-68
2020/12/29 00:36:41;;;;;;;1999.90;999.90;;;;;;;-2.94;98.81;101501.78;1733213;81;21363;-77
2020/12/29 00:39:09;;;;;;;1999.90;999.90;;;;;;;-2.94;99.02;101499.91;1732445;81;21196;-68
2020/12/29 00:41:37;;;;;;;1999.90;999.90;;;;;;;-2.94;99.19;101489.59;1728253;81;21141;-68
2020/12/29 00:44:05;;;;;;;1999.90;999.90;;;;;;;-2.93;99.36;101483.14;1731041;81;21435;-79
2020/12/29 00:46:33;;;;;;;1999.90;999.90;;;;;;;-2.94;99.52;101485.02;1729679;82;21186;-78
2020/12/29 00:49:01;;;;;;;1999.90;999.90;;;;;;;-2.95;99.72;101465.73;1732152;82;21392;-78
2020/12/29 00:51:29;;;;;;;1999.90;999.90;;;;;;;-2.94;99.89;101474.19;1725034;81;21198;-75
2020/12/29 00:53:59;;;;;;;1999.90;999.90;;;;;;;-2.93;100.00;101468.25;1734834;81;21166;-76
2020/12/29 00:56:28;;;;;;;1999.90;999.90;;;;;;;-2.92;100.00;101466.70;1728561;81;21568;-76
2020/12/29 00:58:56;;;;;;;1999.90;999.90;;;;;;;-2.90;100.00;101471.08;1735353;81;21179;-67
2020/12/29 01:01:25;;;;;;;1999.90;999.90;;;;;;;-2.89;100.00;101464.63;1733830;81;22248;-75
2020/12/29 01:04:11;;;;;;;1999.90;999.90;;;;;;;-2.89;100.00;101470.05;1738934;81;21130;-70
2020/12/29 01:06:40;;;;;;;1999.90;999.90;;;;;;;-2.88;100.00;101462.23;1703453;82;21161;-77
2020/12/29 01:09:09;;;;;;;1999.90;999.90;;;;;;;-2.88;100.00;101461.72;1731582;81;21148;-76
2020/12/29 01:11:37;;;;;;;1999.90;999.90;;;;;;;-2.87;100.00;101467.97;1708055;81;21214;-76
2020/12/29 01:14:05;;;;;;;1999.90;999.90;;;;;;;-2.87;100.00;101463.39;1733918;81;21457;-69
2020/12/29 01:16:35;;;;;;;1999.90;999.90;;;;;;;-2.85;100.00;101464.55;1731067;81;21627;-77
2020/12/29 01:19:02;;;;;;;1999.90;999.90;;;;;;;-2.85;100.00;101453.20;1716528;82;21607;-68
2020/12/29 01:21:33;;;;;;;1999.90;999.90;;;;;;;-2.84;100.00;101452.16;1743566;82;21112;-77
2020/12/29 01:24:01;;;;;;;1999.90;999.90;;;;;;;-2.83;100.00;101451.13;1735952;82;21124;-77
2020/12/29 01:26:28;;;;;;;1999.90;999.90;;;;;;;-2.81;100.00;101463.12;1742464;82;21389;-76
2020/12/29 01:28:56;;;;;;;1999.90;999.90;;;;;;;-2.80;100.00;101455.31;1735906;82;21138;-75
2020/12/29 01:31:27;;;;;;;1999.90;999.90;;;;;;;-2.80;100.00;101452.08;1740218;81;21167;-68
2020/12/29 01:33:55;;;;;;;1999.90;999.90;;;;;;;-2.79;100.00;101455.11;1735313;82;21154;-68
2020/12/29 01:36:24;;;;;;;1999.90;999.90;;;;;;;-2.77;100.00;101448.14;1737536;81;21092;-75
2020/12/29 01:38:52;;;;;;;1999.90;999.90;;;;;;;-2.76;100.00;101447.10;1738844;82;21374;-68
2020/12/29 01:41:20;;;;;;;1999.90;999.90;;;;;;;-2.78;100.00;101445.95;1739126;82;21551;-73
2020/12/29 01:43:50;;;;;;;1999.90;999.90;;;;;;;-2.77;100.00;101448.97;1735479;82;21136;-68
2020/12/29 01:46:26;;;;;;;1999.90;999.90;;;;;;;-2.70;100.00;101447.66;1831077;76;28708;-73
2020/12/29 01:48:54;;;;;;;1999.90;999.90;;;;;;;-2.72;100.00;101447.86;1808137;77;20984;-74
2020/12/29 01:51:21;;;;;;;1999.90;999.90;;;;;;;-2.71;100.00;101448.69;1764956;80;21314;-67
2020/12/29 01:53:49;;;;;;;1999.90;999.90;;;;;;;-2.71;100.00;101452.76;1758268;79;21038;-74
2020/12/29 01:56:18;;;;;;;1999.90;999.90;;;;;;;-2.70;100.00;101459.84;1758645;79;21573;-74
2020/12/29 01:58:46;;;;;;;1999.90;999.90;;;;;;;-2.68;100.00;101466.74;1760800;80;20961;-73
2020/12/29 02:01:15;;;;;;;1999.90;999.90;;;;;;;-2.68;100.00;101472.16;1736324;81;20976;-71
2020/12/29 02:03:43;;;;;;;1999.90;999.90;;;;;;;-2.67;100.00;101464.88;1757480;79;21439;-67
2020/12/29 02:06:11;;;;;;;1999.90;999.90;;;;;;;-2.68;100.00;101453.71;1760356;79;20991;-69
2020/12/29 02:08:38;;;;;;;1999.90;999.90;;;;;;;-2.69;100.00;101452.04;1750822;79;21670;-68
2020/12/29 02:11:06;;;;;;;1999.90;999.90;;;;;;;-2.68;100.00;101456.42;1754177;79;21114;-73
2020/12/29 02:13:41;;;;;;;1999.90;999.90;;;;;;;-2.69;100.00;101461.00;1747664;79;21013;-68
2020/12/29 02:16:08;;;;;;;1999.90;999.90;;;;;;;-2.68;100.00;101465.91;1756345;80;21559;-72
2020/12/29 02:18:37;;;;;;;1999.90;999.90;;;;;;;-2.69;100.00;101452.04;1748089;79;21158;-68
2020/12/29 02:21:04;;;;;;;1999.90;999.90;;;;;;;-2.69;100.00;101454.75;1754969;79;20970;-68
2020/12/29 02:23:32;;;;;;;1999.90;999.90;;;;;;;-2.70;100.00;101453.91;1751220;80;21558;-73
2020/12/29 02:26:00;;;;;;;1999.90;999.90;;;;;;;-2.68;100.00;101455.91;1755221;79;20996;-72
2020/12/29 02:28:27;;;;;;;1999.90;999.90;;;;;;;-2.67;100.00;101454.03;1754148;81;21380;-72
2020/12/29 02:30:55;;;;;;;1999.90;999.90;;;;;;;-2.65;100.00;101454.67;1758566;79;21099;-74
2020/12/29 02:33:23;;;;;;;1999.90;999.90;;;;;;;-2.66;100.00;101453.83;1754975;79;21554;-74
2020/12/29 02:35:51;;;;;;;1999.90;999.90;;;;;;;-2.65;100.00;101447.37;1759171;79;21118;-68
2020/12/29 02:38:23;;;;;;;1999.90;999.90;;;;;;;-2.64;100.00;101449.05;1758627;79;21115;-68
2020/12/29 02:40:51;;;;;;;1999.90;999.90;;;;;;;-2.62;100.00;101435.30;1757270;80;21214;-68
2020/12/29 02:43:19;;;;;;;1999.90;999.90;;;;;;;-2.63;100.00;101435.81;1740681;81;21555;-75
2020/12/29 02:45:47;;;;;;;1999.90;999.90;;;;;;;-2.62;100.00;101438.01;1756113;80;21595;-74
2020/12/29 02:48:14;;;;;;;1999.90;999.90;;;;;;;-2.62;100.00;101436.14;1746567;80;21153;-69
2020/12/29 02:50:42;;;;;;;1999.90;999.90;;;;;;;-2.60;100.00;101441.35;1752575;80;21094;-70
2020/12/29 02:53:10;;;;;;;1999.90;999.90;;;;;;;-2.60;100.00;101444.06;1738289;81;21486;-70
2020/12/29 02:55:38;;;;;;;1999.90;999.90;;;;;;;-2.58;100.00;101437.09;1753721;80;21023;-70
2020/12/29 02:58:05;;;;;;;1999.90;999.90;;;;;;;-2.57;100.00;101427.92;1743320;80;21012;-70
2020/12/29 03:00:33;;;;;;;1999.90;999.90;;;;;;;-2.58;100.00;101424.38;1753185;80;21523;-76
2020/12/29 03:03:01;;;;;;;1999.90;999.90;;;;;;;-2.56;100.00;101418.75;1737564;81;20984;-76
2020/12/29 03:05:29;;;;;;;1999.90;999.90;;;;;;;-2.57;100.00;101410.30;1746001;80;21188;-75
2020/12/29 03:07:56;;;;;;;1999.90;999.90;;;;;;;-2.57;100.00;101415.20;1737349;80;21697;-77
2020/12/29 03:10:24;;;;;;;1999.90;999.90;;;;;;;-2.56;100.00;101407.91;1749584;80;20984;-71
2020/12/29 03:12:52;;;;;;;1999.90;999.90;;;;;;;-2.56;100.00;101406.55;1736712;80;21047;-69
2020/12/29 03:15:19;;;;;;;1999.90;999.90;;;;;;;-2.55;100.00;101400.94;1744926;80;21447;-75
2020/12/29 03:17:47;;;;;;;1999.90;999.90;;;;;;;-2.54;100.00;101406.67;1743416;80;21390;-76
2020/12/29 03:20:15;;;;;;;1999.90;999.90;;;;;;;-2.53;100.00;101409.70;1748383;80;21135;-68
2020/12/29 03:22:43;;;;;;;1999.90;999.90;;;;;;;-2.52;100.00;101402.41;1754766;80;20968;-68
2020/12/29 03:25:10;;;;;;;1999.90;999.90;;;;;;;-2.51;100.00;101400.01;1750850;80;21103;-75
2020/12/29 03:27:39;;;;;;;1999.90;999.90;;;;;;;-2.49;100.00;101406.91;1750290;80;21131;-75
2020/12/29 03:30:07;;;;;;;1999.90;999.90;;;;;;;-2.48;100.00;101404.51;1758070;80;21562;-69
2020/12/29 03:32:35;;;;;;;1999.90;999.90;;;;;;;-2.47;100.00;101400.76;1744265;80;21147;-76
2020/12/29 03:35:03;;;;;;;1999.90;999.90;;;;;;;-2.46;100.00;101407.02;1754915;80;21118;-68
2020/12/29 03:37:31;;;;;;;1999.90;999.90;;;;;;;-2.46;100.00;101407.85;1748515;80;20964;-75
2020/12/29 03:39:58;;;;;;;1999.90;999.90;;;;;;;-2.44;100.00;101405.77;1755255;80;21059;-69
2020/12/29 03:42:26;;;;;;;1999.90;999.90;;;;;;;-2.44;100.00;101404.94;1744617;81;21594;-70
2020/12/29 03:44:54;;;;;;;1999.90;999.90;;;;;;;-2.42;100.00;101405.57;1750797;80;21127;-74
2020/12/29 03:47:23;;;;;;;1999.90;999.90;;;;;;;-2.41;100.00;101404.53;1742175;81;21168;-73
2020/12/29 03:49:51;;;;;;;1999.90;999.90;;;;;;;-2.40;100.00;101399.43;1742565;81;21616;-73
2020/12/29 03:52:19;;;;;;;1999.90;999.90;;;;;;;-2.39;100.00;101399.23;1732063;81;21002;-73
2020/12/29 03:54:47;;;;;;;1999.90;999.90;;;;;;;-2.40;100.00;101393.48;1732541;81;21561;-73
2020/12/29 03:57:15;;;;;;;1999.90;999.90;;;;;;;-2.38;100.00;101394.12;1743797;81;20939;-73
2020/12/29 03:59:42;;;;;;;1999.90;999.90;;;;;;;-2.36;100.00;101393.92;1734283;81;21116;-76
2020/12/29 04:02:10;;;;;;;1999.90;999.90;;;;;;;-2.36;100.00;101389.84;1730522;81;21049;-75
2020/12/29 04:04:38;;;;;;;1999.90;999.90;;;;;;;-2.36;100.00;101382.55;1739449;81;21791;-75
2020/12/29 04:07:06;;;;;;;1999.90;999.90;;;;;;;-2.36;100.00;101385.27;1731281;81;21385;-73
2020/12/29 04:09:35;;;;;;;1999.90;999.90;;;;;;;-2.35;100.00;101383.39;1739674;81;21168;-75
2020/12/29 04:12:02;;;;;;;1999.90;999.90;;;;;;;-2.35;100.00;101385.58;1736699;81;21026;-70
2020/12/29 04:14:30;;;;;;;1999.90;999.90;;;;;;;-2.35;100.00;101385.58;1744399;81;21175;-75
2020/12/29 04:16:58;;;;;;;1999.90;999.90;;;;;;;-2.36;100.00;101387.97;1725180;81;21102;-73
2020/12/29 04:19:26;;;;;;;1999.90;999.90;;;;;;;-2.34;100.00;101396.73;1733697;81;21148;-74
2020/12/29 04:21:54;;;;;;;1999.90;999.90;;;;;;;-2.34;100.00;101396.73;1725193;82;21025;-75
2020/12/29 04:24:22;;;;;;;1999.90;999.90;;;;;;;-2.32;100.00;101396.54;1734653;81;21536;-75
2020/12/29 04:26:49;;;;;;;1999.90;999.90;;;;;;;-2.31;100.00;101391.43;1726087;82;21646;-69
2020/12/29 04:29:17;;;;;;;1999.90;999.90;;;;;;;-2.33;100.00;101384.86;1724885;81;21033;-69
2020/12/29 04:31:47;;;;;;;1999.90;999.90;;;;;;;-2.32;100.00;101380.27;1727491;82;21440;-72
2020/12/29 04:34:15;;;;;;;1999.90;999.90;;;;;;;-2.31;100.00;101371.94;1728222;82;21564;-76
2020/12/29 04:36:43;;;;;;;1999.90;999.90;;;;;;;-2.31;100.00;101373.29;1730261;81;21180;-76
2020/12/29 04:39:10;;;;;;;1999.90;999.90;;;;;;;-2.29;100.00;101379.86;1728616;82;21135;-69
2020/12/29 04:41:39;;;;;;;1999.90;999.90;;;;;;;-2.28;100.00;101377.47;1718145;82;20973;-69
2020/12/29 04:44:07;;;;;;;1999.90;999.90;;;;;;;-2.27;100.00;101375.91;1722118;81;21376;-68
2020/12/29 04:46:35;;;;;;;1999.90;999.90;;;;;;;-2.28;100.00;101382.37;1751979;79;21122;-69
2020/12/29 04:49:03;;;;;;;1999.90;999.90;;;;;;;-2.27;100.00;101381.85;1743410;81;21728;-69
2020/12/29 04:51:31;;;;;;;1999.90;999.90;;;;;;;-2.25;100.00;101381.64;1745939;81;21132;-69
2020/12/29 04:53:59;;;;;;;1999.90;999.90;;;;;;;-2.24;100.00;101381.96;1721705;81;21557;-69
2020/12/29 04:59:08;;;;;;;1999.90;999.90;;;;;;;-2.18;100.00;101372.48;1817159;76;23288;-67
2020/12/29 05:01:36;;;;;;;1999.90;999.90;;;;;;;-2.20;100.00;101380.52;1753390;79;20954;-76
2020/12/29 05:04:04;;;;;;;1999.90;999.90;;;;;;;-2.19;100.00;101372.69;1750754;79;21370;-67
2020/12/29 05:06:32;;;;;;;1999.90;999.90;;;;;;;-2.18;100.00;101381.98;1750599;79;21516;-75
2020/12/29 05:08:59;;;;;;;1999.90;999.90;;;;;;;-2.16;100.00;101382.61;1706512;81;21012;-68
2020/12/29 05:11:29;;;;;;;1999.90;999.90;;;;;;;-2.14;100.00;101378.34;1714387;81;21005;-68
2020/12/29 05:13:57;;;;;;;1999.90;999.90;;;;;;;-2.13;100.00;101382.20;1693529;81;20977;-74
2020/12/29 05:16:24;;;;;;;1999.90;999.90;;;;;;;-2.11;100.00;101392.84;1746798;81;21375;-68
2020/12/29 05:18:52;;;;;;;1999.90;999.90;;;;;;;-2.10;100.00;101396.70;1757707;79;20933;-68
2020/12/29 05:21:21;;;;;;;1999.90;999.90;;;;;;;-2.10;100.00;101391.28;1740081;81;20976;-73
2020/12/29 05:23:50;;;;;;;1999.90;999.90;;;;;;;-2.08;100.00;101399.22;1751036;81;21157;-68
2020/12/29 05:26:18;;;;;;;1999.90;999.90;;;;;;;-2.06;100.00;101409.34;1735531;81;21171;-70
2020/12/29 05:28:46;;;;;;;1999.90;999.90;;;;;;;-2.03;100.00;101411.64;1742943;81;21406;-69
2020/12/29 05:31:15;;;;;;;1999.90;999.90;;;;;;;-2.02;100.00;101411.95;1741343;81;21107;-73
2020/12/29 05:33:44;;;;;;;1999.90;999.90;;;;;;;-2.01;100.00;101410.39;1699750;81;20979;-68
2020/12/29 05:36:12;;;;;;;1999.90;999.90;;;;;;;-1.99;100.00;101420.52;1721163;81;21427;-73
2020/12/29 05:38:41;;;;;;;1999.90;999.90;;;;;;;-2.00;100.00;101411.23;1727173;81;20953;-69
2020/12/29 05:41:13;;;;;;;1999.90;999.90;;;;;;;-1.98;100.00;101419.48;1740760;81;22240;-69
2020/12/29 05:43:42;;;;;;;1999.90;999.90;;;;;;;-1.97;100.00;101427.94;1739419;81;21134;-73
2020/12/29 05:46:10;;;;;;;1999.90;999.90;;;;;;;-1.97;100.00;101421.15;1733206;79;21127;-73
2020/12/29 05:48:38;;;;;;;1999.90;999.90;;;;;;;-1.96;100.00;101416.56;1714825;81;21555;-73
2020/12/29 05:51:14;;;;;;;1999.90;999.90;;;;;;;-1.94;100.00;101419.91;1748223;81;21530;-74
2020/12/29 05:53:43;;;;;;;1999.90;999.90;;;;;;;-1.92;100.00;101426.48;1741919;79;21431;-68
2020/12/29 05:56:11;;;;;;;1999.90;999.90;;;;;;;-1.93;100.00;101433.78;1725884;81;21111;-74
2020/12/29 05:58:38;;;;;;;1999.90;999.90;;;;;;;-1.92;100.00;101416.47;1718575;81;20996;-68
2020/12/29 06:01:06;;;;;;;1999.90;999.90;;;;;;;-1.92;100.00;101411.04;1749401;81;21582;-68
2020/12/29 06:03:34;;;;;;;1999.90;999.90;;;;;;;-1.91;100.00;101404.57;1747626;81;21116;-69
2020/12/29 06:06:06;;;;;;;1999.90;999.90;;;;;;;-1.89;100.00;101398.94;1719445;81;21364;-68
2020/12/29 06:08:37;;;;;;;1999.90;999.90;;;;;;;-1.89;100.00;101391.64;1740198;81;21890;-70
2020/12/29 06:11:13;;;;;;;1999.90;999.90;;;;;;;-1.86;100.00;101400.72;1719124;81;21008;-76
2020/12/29 06:13:45;;;;;;;1999.90;999.90;;;;;;;-1.86;100.00;101395.30;1745909;81;20969;-76
2020/12/29 06:16:17;;;;;;;1999.90;999.90;;;;;;;-1.84;100.00;101390.50;1744788;81;20925;-78
2020/12/29 06:18:46;;;;;;;1999.90;999.90;;;;;;;-1.81;100.00;101387.89;1758408;81;21205;-68
2020/12/29 06:21:14;;;;;;;1999.90;999.90;;;;;;;-1.78;100.00;101388.31;1745718;81;20997;-69
2020/12/29 06:23:47;;;;;;;1999.90;999.90;;;;;;;-1.77;100.00;101396.77;1731227;81;21012;-68
2020/12/29 06:26:19;;;;;;;1999.90;999.90;;;;;;;-1.74;100.00;101398.23;1744897;81;21100;-68
2020/12/29 06:28:50;;;;;;;1999.90;999.90;;;;;;;-1.71;100.00;101402.72;1754338;81;21642;-77
2020/12/29 06:31:24;;;;;;;1999.90;999.90;;;;;;;-1.69;100.00;101403.88;1755676;79;22094;-73
2020/12/29 06:33:59;;;;;;;1999.90;999.90;;;;;;;-1.62;100.00;101401.48;1855712;76;29454;-72
2020/12/29 06:36:29;;;;;;;1999.90;999.90;;;;;;;-1.63;100.00;101416.09;1765697;78;20988;-72
2020/12/29 06:39:03;;;;;;;1999.90;999.90;;;;;;;-1.60;100.00;101412.13;1800707;78;22225;-74
2020/12/29 06:41:29;;;;;;;1999.90;999.90;;;;;;;-1.58;100.00;101397.83;1801133;77;21551;-73
2020/12/29 06:43:57;;;;;;;1999.90;999.90;;;;;;;-1.55;100.00;101392.50;1783205;78;20948;-74
2020/12/29 06:46:27;;;;;;;1999.90;999.90;;;;;;;-1.54;100.00;101386.86;1804627;78;21494;-70
2020/12/29 06:49:19;;;;;;;1999.90;999.90;;;;;;;-1.51;100.00;101395.11;1778916;78;21122;-70
2020/12/29 06:51:47;;;;;;;1999.90;999.90;;;;;;;-1.50;100.00;101406.28;1806195;78;21624;-65
2020/12/29 06:54:20;;;;;;;1999.90;999.90;;;;;;;-1.48;100.00;101409.63;1803033;78;21546;-66
2020/12/29 06:56:59;;;;;;;1999.90;999.90;;;;;;;-1.46;100.00;101402.11;1806056;78;20968;-65
2020/12/29 06:59:39;;;;;;;1999.90;999.90;;;;;;;-1.44;100.00;101413.59;1795883;77;20987;-65
2020/12/29 07:02:19;;;;;;;1999.90;999.90;;;;;;;-1.43;100.00;101409.31;1803956;78;21111;-72
2020/12/29 07:04:53;;;;;;;1999.90;999.90;;;;;;;-1.41;100.00;101405.03;1814961;78;21522;-65
2020/12/29 07:07:33;;;;;;;1999.90;999.90;;;;;;;-1.39;100.00;101399.70;1816573;78;20999;-66
2020/12/29 07:10:12;;;;;;;1999.90;999.90;;;;;;;-1.36;100.00;101399.28;1782091;78;20980;-70
2020/12/29 07:12:49;;;;;;;1999.90;999.90;;;;;;;-1.34;100.00;101395.00;1808355;78;20972;-70
2020/12/29 07:15:20;;;;;;;1999.90;999.90;;;;;;;-1.31;100.00;101398.66;1812664;78;21006;-71
2020/12/29 07:18:01;;;;;;;1999.90;999.90;;;;;;;-1.29;100.00;101400.64;1806304;78;22084;-73
2020/12/29 07:20:33;;;;;;;1999.90;999.90;;;;;;;-1.27;100.00;101399.91;1809830;77;20999;-66
2020/12/29 07:23:07;;;;;;;1999.90;999.90;;;;;;;-1.24;100.00;101408.16;1801620;77;20984;-72
2020/12/29 07:25:37;;;;;;;1999.90;999.90;;;;;;;-1.20;100.00;101413.48;1804713;78;21526;-66
2020/12/29 07:28:06;;;;;;;1999.90;999.90;;;;;;;-1.18;100.00;101413.58;1801784;77;21506;-68
2020/12/29 07:30:34;;;;;;;1999.90;999.90;;;;;;;-1.14;100.00;101408.56;1802391;78;22218;-68
2020/12/29 07:33:04;;;;;;;1999.90;999.90;;;;;;;-1.11;100.00;101410.86;1806848;78;20937;-73
2020/12/29 07:35:35;;;;;;;1999.90;999.90;;;;;;;-1.09;100.00;101406.88;1800773;78;20972;-66
2020/12/29 07:38:24;;;;;;;1999.90;999.90;;;;;;;-1.05;100.00;101412.20;1800219;78;20956;-66
2020/12/29 07:40:52;;;;;;;1999.90;999.90;;;;;;;-1.01;100.00;101408.02;1803798;78;21486;-66
2020/12/29 07:43:20;;;;;;;1999.90;999.90;;;;;;;-0.99;100.00;101414.08;1803601;78;21872;-73
2020/12/29 07:45:48;;;;;;;1999.90;999.90;;;;;;;-0.97;100.00;101409.27;1810075;77;21103;-66
2020/12/29 07:48:16;;;;;;;1999.90;999.90;;;;;;;-0.93;100.00;101406.13;1801683;78;21118;-67
2020/12/29 07:50:44;;;;;;;1999.90;999.90;;;;;;;-0.90;100.00;101407.06;1805673;78;21539;-67
2020/12/29 07:53:12;;;;;;;1999.90;999.90;;;;;;;-0.89;100.00;101402.77;1797798;78;21000;-68
2020/12/29 07:55:40;;;;;;;1999.90;999.90;;;;;;;-0.87;100.00;101395.23;1814409;77;21192;-72
2020/12/29 07:58:09;;;;;;;1999.90;999.90;;;;;;;-0.84;100.00;101399.41;1808212;78;21099;-67
2020/12/29 08:00:39;;;;;;;1999.90;999.90;;;;;;;-0.80;100.00;101395.22;1808264;77;21071;-71
2020/12/29 08:03:06;;;;;;;1999.90;999.90;;;;;;;-0.76;100.00;101396.47;1797641;78;20964;-66
2020/12/29 08:05:35;;;;;;;1999.90;999.90;;;;;;;-0.71;100.00;101393.42;1804057;78;21069;-67
2020/12/29 08:08:06;;;;;;;1999.90;999.90;;;;;;;-0.62;100.00;101385.86;1795473;78;21324;-72
2020/12/29 08:10:39;;;;;;;1999.90;999.90;;;;;;;-0.51;100.00;101382.47;1800521;77;20980;-70
2020/12/29 08:13:16;;;;;;;1999.90;999.90;;;;;;;-0.44;100.00;101383.27;1801930;77;20972;-68
2020/12/29 08:15:44;;;;;;;1999.90;999.90;;;;;;;-0.34;100.00;101386.89;1803466;78;20972;-72
2020/12/29 08:18:18;;;;;;;1999.90;999.90;;;;;;;-0.23;100.00;101380.77;1801725;78;21087;-69
2020/12/29 08:20:57;;;;;;;1999.90;999.90;;;;;;;-0.16;100.00;101372.57;1814142;77;21371;-70
2020/12/29 08:23:26;;;;;;;1999.90;999.90;;;;;;;-0.11;100.00;101372.75;1801282;78;21590;-74
2020/12/29 08:25:56;;;;;;;1999.90;999.90;;;;;;;-0.07;100.00;101378.06;1806240;78;21031;-77
2020/12/29 08:28:30;;;;;;;1999.90;999.90;;;;;;;-0.01;100.00;101367.66;1806815;78;21067;-70
2020/12/29 08:31:02;;;;;;;1999.90;999.90;;;;;;;0.01;100.00;101373.75;1813994;77;21145;-73
2020/12/29 08:33:30;;;;;;;1999.90;999.90;;;;;;;0.03;100.00;101377.62;1764108;78;21450;-70
2020/12/29 08:36:01;;;;;;;1999.90;999.90;;;;;;;0.04;100.00;101377.39;1777843;79;20999;-70
2020/12/29 08:38:43;;;;;;;1999.90;999.90;;;;;;;0.08;100.00;101376.44;1782463;79;21065;-67
2020/12/29 08:41:22;;;;;;;1999.90;999.90;;;;;;;0.09;100.00;101377.58;1780795;79;21071;-71
2020/12/29 08:43:51;;;;;;;1999.90;999.90;;;;;;;0.11;100.00;101380.08;1770648;79;21103;-67
2020/12/29 08:46:23;;;;;;;1999.90;999.90;;;;;;;0.14;100.00;101387.27;1784060;77;21558;-67
2020/12/29 08:49:01;;;;;;;1999.90;999.90;;;;;;;0.15;100.00;101384.86;1776282;77;21118;-71
2020/12/29 08:51:40;;;;;;;1999.90;999.90;;;;;;;0.16;100.00;101385.69;1786198;77;20960;-70
2020/12/29 08:54:15;;;;;;;1999.90;999.90;;;;;;;0.18;100.00;101380.86;1793557;77;21542;-74
2020/12/29 08:56:43;;;;;;;1999.90;999.90;;;;;;;0.18;100.00;101385.78;1785092;77;21103;-75
2020/12/29 08:59:22;;;;;;;1999.90;999.90;;;;;;;0.20;100.00;101385.56;1779011;79;22051;-70
2020/12/29 09:01:56;;;;;;;1999.90;999.90;;;;;;;0.21;100.00;101394.03;1786380;79;21007;-70
2020/12/29 09:04:40;;;;;;;1999.90;999.90;;;;;;;0.24;100.00;101378.09;1770336;79;20984;-73
2020/12/29 09:07:13;;;;;;;1999.90;999.90;;;;;;;0.26;100.00;101371.91;1783504;79;21074;-70
2020/12/29 09:10:07;;;;;;;1999.90;999.90;;;;;;;0.26;100.00;101368.34;1784008;77;21189;-71
2020/12/29 09:12:35;;;;;;;1999.90;999.90;;;;;;;0.25;100.00;101363.42;1781811;78;21344;-72
2020/12/29 09:15:10;;;;;;;1999.90;999.90;;;;;;;0.28;100.00;101356.70;1776754;77;21098;-72
2020/12/29 09:17:43;;;;;;;1999.90;999.90;;;;;;;0.27;100.00;101355.87;1780784;78;20964;-72
2020/12/29 09:20:19;;;;;;;1999.90;999.90;;;;;;;0.27;100.00;101346.34;1789405;79;21082;-66
2020/12/29 09:23:11;;;;;;;1999.90;999.90;;;;;;;0.29;100.00;101345.59;1785842;79;21241;-77
2020/12/29 09:25:43;;;;;;;1999.90;999.90;;;;;;;0.30;100.00;101345.90;1779123;79;21206;-70
2020/12/29 09:28:26;;;;;;;1999.90;999.90;;;;;;;0.31;100.00;101335.84;1768589;79;21141;-68
2020/12/29 09:31:00;;;;;;;1999.90;999.90;;;;;;;0.34;100.00;101338.65;1779483;79;21121;-66
2020/12/29 09:33:29;;;;;;;1999.90;999.90;;;;;;;0.35;100.00;101345.77;1789831;77;21094;-68
2020/12/29 09:36:02;;;;;;;1999.90;999.90;;;;;;;0.36;100.00;101341.45;1810430;77;21557;-73
2020/12/29 09:38:30;;;;;;;1999.90;999.90;;;;;;;0.38;100.00;101347.52;1817514;77;21199;-63
2020/12/29 09:41:00;;;;;;;1999.90;999.90;;;;;;;0.40;100.00;101336.40;1814240;77;21111;-65
2020/12/29 09:43:29;;;;;;;1999.90;999.90;;;;;;;0.41;100.00;101340.79;1809220;77;21000;-63
2020/12/29 09:45:57;;;;;;;1999.90;999.90;;;;;;;0.44;100.00;101337.09;1808856;78;21142;-67
2020/12/29 09:48:26;;;;;;;1999.90;999.90;;;;;;;0.42;100.00;101334.28;1801966;77;21134;-62
2020/12/29 09:50:55;;;;;;;1999.90;999.90;;;;;;;0.43;100.00;101331.34;1810056;77;21800;-63
2020/12/29 09:53:22;;;;;;;1999.90;999.90;;;;;;;0.45;100.00;101328.39;1809012;78;21027;-61
2020/12/29 09:55:50;;;;;;;1999.90;999.90;;;;;;;0.43;100.00;101325.89;1815225;78;20960;-63
2020/12/29 09:58:19;;;;;;;1999.90;999.90;;;;;;;0.43;100.00;101319.09;1804512;78;21168;-64
2020/12/29 10:00:47;;;;;;;1999.90;999.90;;;;;;;0.46;100.00;101328.70;1803580;78;21586;-65
2020/12/29 10:03:15;;;;;;;1999.90;999.90;;;;;;;0.47;100.00;101328.48;1804092;78;22213;-64
2020/12/29 10:05:46;;;;;;;1999.90;999.90;;;;;;;0.47;100.00;101333.09;1802883;78;21166;-64
2020/12/29 10:08:13;;;;;;;1999.90;999.90;;;;;;;0.48;100.00;101332.03;1800910;78;21098;-60
2020/12/29 10:10:41;;;;;;;1999.90;999.90;;;;;;;0.48;100.00;101336.95;1806611;78;20953;-62
2020/12/29 10:13:09;;;;;;;1999.90;999.90;;;;;;;0.50;100.00;101336.73;1801014;78;21035;-64
2020/12/29 10:15:37;;;;;;;1999.90;999.90;;;;;;;0.50;100.00;101340.81;1801123;78;22252;-63
2020/12/29 10:18:05;;;;;;;1999.90;999.90;;;;;;;0.52;100.00;101332.72;1806666;78;20964;-63
2020/12/29 10:20:32;;;;;;;1999.90;999.90;;;;;;;0.54;100.00;101325.16;1804475;78;20968;-64
2020/12/29 10:23:00;;;;;;;1999.90;999.90;;;;;;;0.54;100.00;101308.82;1800742;78;20991;-64
2020/12/29 10:25:28;;;;;;;1999.90;999.90;;;;;;;0.55;100.00;101310.48;1813049;78;21134;-66
2020/12/29 10:27:56;;;;;;;1999.90;999.90;;;;;;;0.53;100.00;101308.52;1808358;78;21198;-63
2020/12/29 10:30:23;;;;;;;1999.90;999.90;;;;;;;0.53;100.00;101308.52;1798400;78;21664;-64
2020/12/29 10:32:51;;;;;;;1999.90;999.90;;;;;;;0.52;100.00;101319.64;1812704;78;20988;-63
2020/12/29 10:35:19;;;;;;;1999.90;999.90;;;;;;;0.53;100.00;101323.50;1807019;78;21118;-65
2020/12/29 10:37:47;;;;;;;1999.90;999.90;;;;;;;0.55;100.00;101331.45;1811152;78;20944;-62
2020/12/29 10:40:15;;;;;;;1999.90;999.90;;;;;;;0.56;100.00;101324.94;1800864;78;21669;-64
2020/12/29 10:42:42;;;;;;;1999.90;999.90;;;;;;;0.56;100.00;101316.77;1818710;78;21122;-64
2020/12/29 10:45:25;;;;;;;1999.90;999.90;;;;;;;0.56;100.00;101299.06;1803565;78;21083;-63
2020/12/29 10:47:53;;;;;;;1999.90;999.90;;;;;;;0.55;100.00;101302.84;1811692;78;21095;-63
2020/12/29 10:50:21;;;;;;;1999.90;999.90;;;;;;;0.56;100.00;101308.59;1798352;78;21186;-63
2020/12/29 10:52:49;;;;;;;1999.90;999.90;;;;;;;0.56;100.00;101303.98;1809880;78;21186;-63
2020/12/29 10:55:17;;;;;;;1999.90;999.90;;;;;;;0.57;100.00;101298.84;1811106;78;21095;-64
2020/12/29 10:57:44;;;;;;;1999.90;999.90;;;;;;;0.59;100.00;101305.42;1800964;78;21130;-64